PWSweather.com
Personal Weather Stations
Station Observations
IPORTUGA89
BarosaPT

BarosaPT

Lat: 39.754028, Lon: -8.843

Elevation: 98

Station Type: Davis Vp2

Latest ConditionsUpdated 9:19:45 PM GMT Thursday, Sep 21, 2017
Currently Today's Max Today's Min Today's Average
Temperature 59.2°F15.1°C 77.0°F25.0°C 54.9°F12.7°C 64.2°F17.9°C
Dew Point 56.3°F13.5°C 64.2°F17.9°C 53.2°F11.8°C 59.5°F15.3°C
Winds 4.9 mph NNW7.9 kmh NNW 14.1 mph WNW22.7 kmh WNW - 4.4 mph 7.1 kmh
Wind Gusts 11.0 mph17.7 kmh 21.9 mph35.2 kmh - -
Humidity 90% 94% 61% 85%
Pressure 30.16 in1021.3 mb 30.16 in1021.3 mb 30.09 in1019.0 mb -
Hour Temp Dew Point Humidity Winds Wind Gusts Pressure Precip Precip Rate Daily Precip Total
09:19 PM 59.2°F15.1°C 56.3°F13.5°C 90% 4.9 mph NNW7.9 kmh NNW 11.0 mph17.7 kmh 30.16 in1021.3 mb 0.00 in0.0 mm 0.00 in0.0 mm 0.00 in0.0 mm
09:09 PM 59.4°F15.2°C 56.5°F13.6°C 90% 4.9 mph NW7.9 kmh NW 10.1 mph16.3 kmh 30.16 in1021.3 mb 0.00 in0.0 mm 0.00 in0.0 mm 0.00 in0.0 mm
08:59 PM 59.4°F15.2°C 56.5°F13.6°C 90% 4.0 mph NW6.4 kmh NW 8.9 mph14.3 kmh 30.16 in1021.3 mb 0.00 in0.0 mm 0.00 in0.0 mm 0.00 in0.0 mm
08:49 PM 59.4°F15.2°C 56.5°F13.6°C 90% 4.0 mph N6.4 kmh N 10.1 mph16.3 kmh 30.16 in1021.3 mb 0.00 in0.0 mm 0.00 in0.0 mm 0.00 in0.0 mm
08:39 PM 59.5°F15.3°C 56.3°F13.5°C 89% 2.9 mph NW4.7 kmh NW 6.9 mph11.1 kmh 30.16 in1021.3 mb 0.00 in0.0 mm 0.00 in0.0 mm 0.00 in0.0 mm
08:29 PM 59.7°F15.4°C 56.5°F13.6°C 89% 4.0 mph NW6.4 kmh NW 10.1 mph16.3 kmh 30.16 in1021.3 mb 0.00 in0.0 mm 0.00 in0.0 mm 0.00 in0.0 mm
08:19 PM 60.1°F15.6°C 56.8°F13.8°C 89% 4.0 mph NNW6.4 kmh NNW 8.9 mph14.3 kmh 30.16 in1021.3 mb 0.00 in0.0 mm 0.00 in0.0 mm 0.00 in0.0 mm
08:09 PM 60.3°F15.7°C 57.0°F13.9°C 89% 4.9 mph NW7.9 kmh NW 10.1 mph16.3 kmh 30.16 in1021.3 mb 0.00 in0.0 mm 0.00 in0.0 mm 0.00 in0.0 mm
07:59 PM 60.4°F15.8°C 56.8°F13.8°C 88% 6.0 mph N9.7 kmh N 13.0 mph20.9 kmh 30.15 in1021.0 mb 0.00 in0.0 mm 0.00 in0.0 mm 0.00 in0.0 mm
07:49 PM 60.6°F15.9°C 57.4°F14.1°C 89% 6.0 mph NNW9.7 kmh NNW 13.0 mph20.9 kmh 30.15 in1021.0 mb 0.00 in0.0 mm 0.00 in0.0 mm 0.00 in0.0 mm
07:39 PM 60.6°F15.9°C 57.0°F13.9°C 88% 6.0 mph N9.7 kmh N 14.1 mph22.7 kmh 30.15 in1021.0 mb 0.00 in0.0 mm 0.00 in0.0 mm 0.00 in0.0 mm
07:29 PM 60.6°F15.9°C 57.0°F13.9°C 88% 6.0 mph NNW9.7 kmh NNW 13.0 mph20.9 kmh 30.15 in1021.0 mb 0.00 in0.0 mm 0.00 in0.0 mm 0.00 in0.0 mm
07:19 PM 60.6°F15.9°C 57.0°F13.9°C 88% 4.9 mph NNW7.9 kmh NNW 13.0 mph20.9 kmh 30.14 in1020.7 mb 0.00 in0.0 mm 0.00 in0.0 mm 0.00 in0.0 mm
07:09 PM 60.8°F16.0°C 57.2°F14.0°C 88% 6.0 mph NW9.7 kmh NW 12.1 mph19.5 kmh 30.14 in1020.7 mb 0.00 in0.0 mm 0.00 in0.0 mm 0.00 in0.0 mm
06:59 PM 61.2°F16.2°C 57.2°F14.0°C 87% 6.0 mph W9.7 kmh W 13.0 mph20.9 kmh 30.14 in1020.7 mb 0.00 in0.0 mm 0.00 in0.0 mm 0.00 in0.0 mm
06:49 PM 61.3°F16.3°C 57.4°F14.1°C 87% 6.9 mph WNW11.1 kmh WNW 13.0 mph20.9 kmh 30.14 in1020.7 mb 0.00 in0.0 mm 0.00 in0.0 mm 0.00 in0.0 mm
06:39 PM 61.5°F16.4°C 57.6°F14.2°C 87% 8.9 mph NW14.3 kmh NW 17.0 mph27.4 kmh 30.14 in1020.7 mb 0.00 in0.0 mm 0.00 in0.0 mm 0.00 in0.0 mm
06:29 PM 62.1°F16.7°C 57.7°F14.3°C 86% 8.9 mph NW14.3 kmh NW 17.9 mph28.8 kmh 30.13 in1020.3 mb 0.00 in0.0 mm 0.00 in0.0 mm 0.00 in0.0 mm
06:19 PM 62.2°F16.8°C 57.9°F14.4°C 86% 8.1 mph NW13.0 kmh NW 15.0 mph24.1 kmh 30.13 in1020.3 mb 0.00 in0.0 mm 0.00 in0.0 mm 0.00 in0.0 mm
06:09 PM 62.8°F17.1°C 58.5°F14.7°C 86% 6.9 mph NW11.1 kmh NW 15.0 mph24.1 kmh 30.13 in1020.3 mb 0.00 in0.0 mm 0.00 in0.0 mm 0.00 in0.0 mm
05:59 PM 63.1°F17.3°C 58.6°F14.8°C 85% 4.9 mph NW7.9 kmh NW 12.1 mph19.5 kmh 30.13 in1020.3 mb 0.00 in0.0 mm 0.00 in0.0 mm 0.00 in0.0 mm
05:49 PM 63.9°F17.7°C 59.2°F15.1°C 85% 6.9 mph NNE11.1 kmh NNE 15.0 mph24.1 kmh 30.12 in1020.0 mb 0.00 in0.0 mm 0.00 in0.0 mm 0.00 in0.0 mm
05:39 PM 64.2°F17.9°C 59.4°F15.2°C 84% 8.1 mph NNW13.0 kmh NNW 14.1 mph22.7 kmh 30.12 in1020.0 mb 0.00 in0.0 mm 0.00 in0.0 mm 0.00 in0.0 mm
05:29 PM 64.6°F18.1°C 59.9°F15.5°C 85% 6.0 mph NW9.7 kmh NW 12.1 mph19.5 kmh 30.12 in1020.0 mb 0.00 in0.0 mm 0.00 in0.0 mm 0.00 in0.0 mm
05:19 PM 64.4°F18.0°C 59.7°F15.4°C 85% 8.1 mph NW13.0 kmh NW 15.0 mph24.1 kmh 30.12 in1020.0 mb 0.00 in0.0 mm 0.00 in0.0 mm 0.00 in0.0 mm
05:09 PM 64.2°F17.9°C 59.9°F15.5°C 86% 8.1 mph N13.0 kmh N 13.0 mph20.9 kmh 30.12 in1020.0 mb 0.00 in0.0 mm 0.00 in0.0 mm 0.00 in0.0 mm
04:59 PM 64.2°F17.9°C 59.9°F15.5°C 86% 8.1 mph WNW13.0 kmh WNW 15.0 mph24.1 kmh 30.12 in1020.0 mb 0.00 in0.0 mm 0.00 in0.0 mm 0.00 in0.0 mm
04:49 PM 64.2°F17.9°C 59.9°F15.5°C 86% 6.0 mph NNW9.7 kmh NNW 14.1 mph22.7 kmh 30.12 in1020.0 mb 0.00 in0.0 mm 0.00 in0.0 mm 0.00 in0.0 mm
04:39 PM 64.4°F18.0°C 59.7°F15.4°C 85% 4.9 mph N7.9 kmh N 13.0 mph20.9 kmh 30.12 in1020.0 mb 0.00 in0.0 mm 0.00 in0.0 mm 0.00 in0.0 mm
04:29 PM 64.2°F17.9°C 59.5°F15.3°C 85% 6.9 mph 11.1 kmh 13.0 mph20.9 kmh 30.12 in1020.0 mb 0.00 in0.0 mm 0.00 in0.0 mm 0.00 in0.0 mm
04:19 PM 64.6°F18.1°C 59.9°F15.5°C 85% 8.9 mph NW14.3 kmh NW 16.1 mph25.9 kmh 30.12 in1020.0 mb 0.00 in0.0 mm 0.00 in0.0 mm 0.00 in0.0 mm
04:09 PM 65.1°F18.4°C 60.1°F15.6°C 84% 8.1 mph NW13.0 kmh NW 15.0 mph24.1 kmh 30.12 in1020.0 mb 0.00 in0.0 mm 0.00 in0.0 mm 0.00 in0.0 mm
03:59 PM 66.0°F18.9°C 60.4°F15.8°C 82% 12.1 mph W19.5 kmh W 17.9 mph28.8 kmh 30.12 in1020.0 mb 0.00 in0.0 mm 0.00 in0.0 mm 0.00 in0.0 mm
03:49 PM 67.5°F19.7°C 61.2°F16.2°C 80% 6.9 mph NW11.1 kmh NW 14.1 mph22.7 kmh 30.12 in1020.0 mb 0.00 in0.0 mm 0.00 in0.0 mm 0.00 in0.0 mm
03:39 PM 69.4°F20.8°C 61.2°F16.2°C 75% 12.1 mph NW19.5 kmh NW 17.9 mph28.8 kmh 30.11 in1019.6 mb 0.00 in0.0 mm 0.00 in0.0 mm 0.00 in0.0 mm
03:29 PM 70.9°F21.6°C 62.6°F17.0°C 75% 11.0 mph NW17.7 kmh NW 17.0 mph27.4 kmh 30.11 in1019.6 mb 0.00 in0.0 mm 0.00 in0.0 mm 0.00 in0.0 mm
03:19 PM 70.3°F21.3°C 63.1°F17.3°C 78% 11.0 mph NW17.7 kmh NW 17.0 mph27.4 kmh 30.11 in1019.6 mb 0.00 in0.0 mm 0.00 in0.0 mm 0.00 in0.0 mm
03:09 PM 70.3°F21.3°C 63.1°F17.3°C 78% 8.9 mph NNW14.3 kmh NNW 15.0 mph24.1 kmh 30.10 in1019.3 mb 0.00 in0.0 mm 0.00 in0.0 mm 0.00 in0.0 mm
02:59 PM 70.9°F21.6°C 63.7°F17.6°C 78% 8.1 mph NW13.0 kmh NW 15.0 mph24.1 kmh 30.10 in1019.3 mb 0.00 in0.0 mm 0.00 in0.0 mm 0.00 in0.0 mm
02:49 PM 71.8°F22.1°C 64.2°F17.9°C 77% 8.9 mph NW14.3 kmh NW 14.1 mph22.7 kmh 30.10 in1019.3 mb 0.00 in0.0 mm 0.00 in0.0 mm 0.00 in0.0 mm
02:39 PM 73.0°F22.8°C 64.2°F17.9°C 74% 10.1 mph W16.3 kmh W 17.9 mph28.8 kmh 30.10 in1019.3 mb 0.00 in0.0 mm 0.00 in0.0 mm 0.00 in0.0 mm
02:29 PM 74.5°F23.6°C 63.7°F17.6°C 69% 12.1 mph NW19.5 kmh NW 17.9 mph28.8 kmh 30.10 in1019.3 mb 0.00 in0.0 mm 0.00 in0.0 mm 0.00 in0.0 mm
02:19 PM 75.6°F24.2°C 64.2°F17.9°C 68% 11.0 mph NW17.7 kmh NW 17.0 mph27.4 kmh 30.10 in1019.3 mb 0.00 in0.0 mm 0.00 in0.0 mm 0.00 in0.0 mm
02:09 PM 74.8°F23.8°C 64.0°F17.8°C 69% 11.0 mph NNW17.7 kmh NNW 17.0 mph27.4 kmh 30.10 in1019.3 mb 0.00 in0.0 mm 0.00 in0.0 mm 0.00 in0.0 mm
01:59 PM 74.8°F23.8°C 63.1°F17.3°C 67% 8.9 mph N14.3 kmh N 19.9 mph32.0 kmh 30.10 in1019.3 mb 0.00 in0.0 mm 0.00 in0.0 mm 0.00 in0.0 mm
01:49 PM 75.6°F24.2°C 63.3°F17.4°C 66% 12.1 mph WNW19.5 kmh WNW 19.9 mph32.0 kmh 30.11 in1019.6 mb 0.00 in0.0 mm 0.00 in0.0 mm 0.00 in0.0 mm
01:38 PM 75.6°F24.2°C 63.9°F17.7°C 67% 11.0 mph NW17.7 kmh NW 17.9 mph28.8 kmh 30.11 in1019.6 mb 0.00 in0.0 mm 0.00 in0.0 mm 0.00 in0.0 mm
01:28 PM 75.4°F24.1°C 63.1°F17.3°C 66% 12.1 mph WNW19.5 kmh WNW 19.0 mph30.6 kmh 30.10 in1019.3 mb 0.00 in0.0 mm 0.00 in0.0 mm 0.00 in0.0 mm
01:18 PM 76.3°F24.6°C 63.1°F17.3°C 64% 12.1 mph 19.5 kmh 19.9 mph32.0 kmh 30.11 in1019.6 mb 0.00 in0.0 mm 0.00 in0.0 mm 0.00 in0.0 mm
01:08 PM 75.9°F24.4°C 62.8°F17.1°C 64% 11.0 mph NW17.7 kmh NW 21.9 mph35.2 kmh 30.11 in1019.6 mb 0.00 in0.0 mm 0.00 in0.0 mm 0.00 in0.0 mm
12:58 PM 75.9°F24.4°C 62.8°F17.1°C 64% 14.1 mph WNW22.7 kmh WNW 19.9 mph32.0 kmh 30.11 in1019.6 mb 0.00 in0.0 mm 0.00 in0.0 mm 0.00 in0.0 mm
12:48 PM 76.3°F24.6°C 62.8°F17.1°C 63% 12.1 mph NW19.5 kmh NW 19.9 mph32.0 kmh 30.11 in1019.6 mb 0.00 in0.0 mm 0.00 in0.0 mm 0.00 in0.0 mm
12:38 PM 77.0°F25.0°C 62.6°F17.0°C 61% 11.0 mph NNE17.7 kmh NNE 21.0 mph33.8 kmh 30.11 in1019.6 mb 0.00 in0.0 mm 0.00 in0.0 mm 0.00 in0.0 mm
12:28 PM 76.6°F24.8°C 63.1°F17.3°C 63% 8.9 mph NW14.3 kmh NW 17.0 mph27.4 kmh 30.11 in1019.6 mb 0.00 in0.0 mm 0.00 in0.0 mm 0.00 in0.0 mm
12:18 PM 75.6°F24.2°C 63.3°F17.4°C 66% 8.1 mph NW13.0 kmh NW 16.1 mph25.9 kmh 30.11 in1019.6 mb 0.00 in0.0 mm 0.00 in0.0 mm 0.00 in0.0 mm
12:08 PM 74.8°F23.8°C 63.1°F17.3°C 67% 6.9 mph N11.1 kmh N 14.1 mph22.7 kmh 30.11 in1019.6 mb 0.00 in0.0 mm 0.00 in0.0 mm 0.00 in0.0 mm
11:58 AM 74.3°F23.5°C 63.9°F17.7°C 70% 4.9 mph NNW7.9 kmh NNW 13.0 mph20.9 kmh 30.11 in1019.6 mb 0.00 in0.0 mm 0.00 in0.0 mm 0.00 in0.0 mm
11:48 AM 73.6°F23.1°C 64.0°F17.8°C 72% 4.9 mph N7.9 kmh N 11.0 mph17.7 kmh 30.11 in1019.6 mb 0.00 in0.0 mm 0.00 in0.0 mm 0.00 in0.0 mm
11:38 AM 72.7°F22.6°C 63.9°F17.7°C 74% 4.9 mph N7.9 kmh N 11.0 mph17.7 kmh 30.11 in1019.6 mb 0.00 in0.0 mm 0.00 in0.0 mm 0.00 in0.0 mm
11:28 AM 71.1°F21.7°C 63.9°F17.7°C 78% 4.0 mph N6.4 kmh N 8.9 mph14.3 kmh 30.11 in1019.6 mb 0.00 in0.0 mm 0.00 in0.0 mm 0.00 in0.0 mm
11:18 AM 70.2°F21.2°C 63.3°F17.4°C 79% 6.9 mph NW11.1 kmh NW 12.1 mph19.5 kmh 30.12 in1020.0 mb 0.00 in0.0 mm 0.00 in0.0 mm 0.00 in0.0 mm
11:08 AM 69.4°F20.8°C 63.0°F17.2°C 80% 6.9 mph N11.1 kmh N 13.0 mph20.9 kmh 30.12 in1020.0 mb 0.00 in0.0 mm 0.00 in0.0 mm 0.00 in0.0 mm
10:58 AM 69.1°F20.6°C 62.6°F17.0°C 80% 6.9 mph 11.1 kmh 15.0 mph24.1 kmh 30.13 in1020.3 mb 0.00 in0.0 mm 0.00 in0.0 mm 0.00 in0.0 mm
10:48 AM 68.9°F20.5°C 62.8°F17.1°C 81% 6.9 mph 11.1 kmh 14.1 mph22.7 kmh 30.13 in1020.3 mb 0.00 in0.0 mm 0.00 in0.0 mm 0.00 in0.0 mm
10:38 AM 68.7°F20.4°C 63.0°F17.2°C 82% 4.9 mph N7.9 kmh N 14.1 mph22.7 kmh 30.13 in1020.3 mb 0.00 in0.0 mm 0.00 in0.0 mm 0.00 in0.0 mm
10:28 AM 68.2°F20.1°C 62.8°F17.1°C 83% 6.0 mph WNW9.7 kmh WNW 11.0 mph17.7 kmh 30.14 in1020.7 mb 0.00 in0.0 mm 0.00 in0.0 mm 0.00 in0.0 mm
10:18 AM 67.6°F19.8°C 62.6°F17.0°C 84% 4.0 mph NNW6.4 kmh NNW 10.1 mph16.3 kmh 30.14 in1020.7 mb 0.00 in0.0 mm 0.00 in0.0 mm 0.00 in0.0 mm
10:08 AM 67.1°F19.5°C 62.4°F16.9°C 85% 6.0 mph NW9.7 kmh NW 13.0 mph20.9 kmh 30.14 in1020.7 mb 0.00 in0.0 mm 0.00 in0.0 mm 0.00 in0.0 mm
09:58 AM 67.1°F19.5°C 62.4°F16.9°C 85% 4.9 mph NNW7.9 kmh NNW 11.0 mph17.7 kmh 30.14 in1020.7 mb 0.00 in0.0 mm 0.00 in0.0 mm 0.00 in0.0 mm
09:48 AM 66.7°F19.3°C 62.1°F16.7°C 85% 4.9 mph N7.9 kmh N 8.9 mph14.3 kmh 30.14 in1020.7 mb 0.00 in0.0 mm 0.00 in0.0 mm 0.00 in0.0 mm
09:38 AM 66.6°F19.2°C 61.9°F16.6°C 85% 4.9 mph N7.9 kmh N 8.9 mph14.3 kmh 30.14 in1020.7 mb 0.00 in0.0 mm 0.00 in0.0 mm 0.00 in0.0 mm
09:28 AM 66.6°F19.2°C 62.6°F17.0°C 87% 4.0 mph N6.4 kmh N 10.1 mph16.3 kmh 30.13 in1020.3 mb 0.00 in0.0 mm 0.00 in0.0 mm 0.00 in0.0 mm
09:18 AM 66.0°F18.9°C 62.4°F16.9°C 88% 4.9 mph NW7.9 kmh NW 8.9 mph14.3 kmh 30.13 in1020.3 mb 0.00 in0.0 mm 0.00 in0.0 mm 0.00 in0.0 mm
09:08 AM 65.5°F18.6°C 62.2°F16.8°C 89% 4.0 mph N6.4 kmh N 6.0 mph9.7 kmh 30.12 in1020.0 mb 0.00 in0.0 mm 0.00 in0.0 mm 0.00 in0.0 mm
08:58 AM 64.9°F18.3°C 61.9°F16.6°C 90% 2.9 mph NW4.7 kmh NW 6.0 mph9.7 kmh 30.12 in1020.0 mb 0.00 in0.0 mm 0.00 in0.0 mm 0.00 in0.0 mm
08:48 AM 64.6°F18.1°C 61.9°F16.6°C 91% 2.0 mph NNW3.2 kmh NNW 4.9 mph7.9 kmh 30.12 in1020.0 mb 0.00 in0.0 mm 0.00 in0.0 mm 0.00 in0.0 mm
08:38 AM 64.0°F17.8°C 61.3°F16.3°C 91% 0.9 mph W1.4 kmh W 6.0 mph9.7 kmh 30.12 in1020.0 mb 0.00 in0.0 mm 0.00 in0.0 mm 0.00 in0.0 mm
08:28 AM 63.7°F17.6°C 61.3°F16.3°C 92% Calm Calm 2.0 mph3.2 kmh 30.12 in1020.0 mb 0.00 in0.0 mm 0.00 in0.0 mm 0.00 in0.0 mm
08:18 AM 63.3°F17.4°C 61.0°F16.1°C 92% 0.9 mph NE1.4 kmh NE 2.9 mph4.7 kmh 30.11 in1019.6 mb 0.00 in0.0 mm 0.00 in0.0 mm 0.00 in0.0 mm
08:08 AM 63.0°F17.2°C 60.6°F15.9°C 92% 0.9 mph NE1.4 kmh NE 2.9 mph4.7 kmh 30.11 in1019.6 mb 0.00 in0.0 mm 0.00 in0.0 mm 0.00 in0.0 mm
07:58 AM 62.8°F17.1°C 60.4°F15.8°C 92% 0.9 mph NE1.4 kmh NE 4.0 mph6.4 kmh 30.11 in1019.6 mb 0.00 in0.0 mm 0.00 in0.0 mm 0.00 in0.0 mm
07:47 AM 62.4°F16.9°C 60.4°F15.8°C 93% 2.0 mph NE3.2 kmh NE 4.0 mph6.4 kmh 30.11 in1019.6 mb 0.00 in0.0 mm 0.00 in0.0 mm 0.00 in0.0 mm
07:37 AM 62.2°F16.8°C 60.3°F15.7°C 93% 2.0 mph NNW3.2 kmh NNW 4.0 mph6.4 kmh 30.11 in1019.6 mb 0.00 in0.0 mm 0.00 in0.0 mm 0.00 in0.0 mm
07:27 AM 62.1°F16.7°C 60.1°F15.6°C 93% 0.9 mph NE1.4 kmh NE 4.0 mph6.4 kmh 30.11 in1019.6 mb 0.00 in0.0 mm 0.00 in0.0 mm 0.00 in0.0 mm
07:17 AM 61.9°F16.6°C 59.9°F15.5°C 93% Calm Calm 2.0 mph3.2 kmh 30.11 in1019.6 mb 0.00 in0.0 mm 0.00 in0.0 mm 0.00 in0.0 mm
07:07 AM 61.7°F16.5°C 59.7°F15.4°C 93% 0.9 mph NE1.4 kmh NE 2.9 mph4.7 kmh 30.11 in1019.6 mb 0.00 in0.0 mm 0.00 in0.0 mm 0.00 in0.0 mm
06:57 AM 61.5°F16.4°C 59.5°F15.3°C 93% Calm Calm 0.9 mph1.4 kmh 30.11 in1019.6 mb 0.00 in0.0 mm 0.00 in0.0 mm 0.00 in0.0 mm
06:47 AM 61.5°F16.4°C 59.5°F15.3°C 93% Calm Calm 0.9 mph1.4 kmh 30.11 in1019.6 mb 0.00 in0.0 mm 0.00 in0.0 mm 0.00 in0.0 mm
06:37 AM 61.5°F16.4°C 59.5°F15.3°C 93% 0.9 mph NW1.4 kmh NW 4.9 mph7.9 kmh 30.11 in1019.6 mb 0.00 in0.0 mm 0.00 in0.0 mm 0.00 in0.0 mm
06:27 AM 61.3°F16.3°C 59.4°F15.2°C 93% 2.0 mph NW3.2 kmh NW 4.0 mph6.4 kmh 30.11 in1019.6 mb 0.00 in0.0 mm 0.00 in0.0 mm 0.00 in0.0 mm
06:17 AM 61.3°F16.3°C 59.4°F15.2°C 93% Calm Calm 0.9 mph1.4 kmh 30.10 in1019.3 mb 0.00 in0.0 mm 0.00 in0.0 mm 0.00 in0.0 mm
06:07 AM 61.2°F16.2°C 59.2°F15.1°C 93% Calm Calm -- 30.10 in1019.3 mb 0.00 in0.0 mm 0.00 in0.0 mm 0.00 in0.0 mm
05:57 AM 61.2°F16.2°C 59.2°F15.1°C 93% Calm Calm 2.0 mph3.2 kmh 30.10 in1019.3 mb 0.00 in0.0 mm 0.00 in0.0 mm 0.00 in0.0 mm
05:47 AM 61.2°F16.2°C 59.2°F15.1°C 93% Calm Calm 2.9 mph4.7 kmh 30.10 in1019.3 mb 0.00 in0.0 mm 0.00 in0.0 mm 0.00 in0.0 mm
05:36 AM 60.8°F16.0°C 58.8°F14.9°C 93% Calm Calm 2.0 mph3.2 kmh 30.09 in1019.0 mb 0.00 in0.0 mm 0.00 in0.0 mm 0.00 in0.0 mm
05:26 AM 60.3°F15.7°C 58.3°F14.6°C 93% Calm Calm -- 30.09 in1019.0 mb 0.00 in0.0 mm 0.00 in0.0 mm 0.00 in0.0 mm
05:16 AM 60.3°F15.7°C 58.3°F14.6°C 93% Calm Calm -- 30.09 in1019.0 mb 0.00 in0.0 mm 0.00 in0.0 mm 0.00 in0.0 mm
05:06 AM 60.1°F15.6°C 58.1°F14.5°C 93% Calm Calm -- 30.09 in1019.0 mb 0.00 in0.0 mm 0.00 in0.0 mm 0.00 in0.0 mm
04:56 AM 60.1°F15.6°C 58.1°F14.5°C 93% Calm Calm -- 30.09 in1019.0 mb 0.00 in0.0 mm 0.00 in0.0 mm 0.00 in0.0 mm
04:46 AM 60.1°F15.6°C 58.1°F14.5°C 93% Calm Calm -- 30.09 in1019.0 mb 0.00 in0.0 mm 0.00 in0.0 mm 0.00 in0.0 mm
04:36 AM 60.1°F15.6°C 57.7°F14.3°C 92% Calm Calm 2.0 mph3.2 kmh 30.09 in1019.0 mb 0.00 in0.0 mm 0.00 in0.0 mm 0.00 in0.0 mm
04:25 AM 59.9°F15.5°C 57.6°F14.2°C 92% Calm Calm -- 30.09 in1019.0 mb 0.00 in0.0 mm 0.00 in0.0 mm 0.00 in0.0 mm
04:15 AM 59.7°F15.4°C 57.4°F14.1°C 92% Calm Calm -- 30.09 in1019.0 mb 0.00 in0.0 mm 0.00 in0.0 mm 0.00 in0.0 mm
04:05 AM 59.7°F15.4°C 57.4°F14.1°C 92% Calm Calm -- 30.09 in1019.0 mb 0.00 in0.0 mm 0.00 in0.0 mm 0.00 in0.0 mm
03:55 AM 59.5°F15.3°C 57.2°F14.0°C 92% Calm Calm -- 30.09 in1019.0 mb 0.00 in0.0 mm 0.00 in0.0 mm 0.00 in0.0 mm
03:45 AM 59.5°F15.3°C 57.2°F14.0°C 92% Calm Calm -- 30.10 in1019.3 mb 0.00 in0.0 mm 0.00 in0.0 mm 0.00 in0.0 mm
03:35 AM 59.5°F15.3°C 57.2°F14.0°C 92% Calm Calm -- 30.10 in1019.3 mb 0.00 in0.0 mm 0.00 in0.0 mm 0.00 in0.0 mm
03:25 AM 59.4°F15.2°C 57.0°F13.9°C 92% Calm Calm -- 30.10 in1019.3 mb 0.00 in0.0 mm 0.00 in0.0 mm 0.00 in0.0 mm
03:15 AM 59.2°F15.1°C 56.8°F13.8°C 92% Calm Calm -- 30.10 in1019.3 mb 0.00 in0.0 mm 0.00 in0.0 mm 0.00 in0.0 mm
03:05 AM 59.0°F15.0°C 56.7°F13.7°C 92% Calm Calm -- 30.10 in1019.3 mb 0.00 in0.0 mm 0.00 in0.0 mm 0.00 in0.0 mm
02:55 AM 58.8°F14.9°C 56.5°F13.6°C 92% Calm Calm -- 30.10 in1019.3 mb 0.00 in0.0 mm 0.00 in0.0 mm 0.00 in0.0 mm
02:44 AM 58.6°F14.8°C 56.3°F13.5°C 92% Calm Calm -- 30.10 in1019.3 mb 0.00 in0.0 mm 0.00 in0.0 mm 0.00 in0.0 mm
02:34 AM 58.6°F14.8°C 56.3°F13.5°C 92% Calm Calm 0.9 mph1.4 kmh 30.11 in1019.6 mb 0.00 in0.0 mm 0.00 in0.0 mm 0.00 in0.0 mm
02:24 AM 58.5°F14.7°C 56.1°F13.4°C 92% Calm Calm -- 30.11 in1019.6 mb 0.00 in0.0 mm 0.00 in0.0 mm 0.00 in0.0 mm
02:14 AM 58.3°F14.6°C 55.9°F13.3°C 92% Calm Calm -- 30.11 in1019.6 mb 0.00 in0.0 mm 0.00 in0.0 mm 0.00 in0.0 mm
02:04 AM 57.9°F14.4°C 55.6°F13.1°C 92% Calm Calm -- 30.11 in1019.6 mb 0.00 in0.0 mm 0.00 in0.0 mm 0.00 in0.0 mm
01:54 AM 57.7°F14.3°C 55.8°F13.2°C 93% Calm Calm -- 30.11 in1019.6 mb 0.00 in0.0 mm 0.00 in0.0 mm 0.00 in0.0 mm
01:44 AM 57.6°F14.2°C 55.2°F12.9°C 92% Calm Calm -- 30.11 in1019.6 mb 0.00 in0.0 mm 0.00 in0.0 mm 0.00 in0.0 mm
01:34 AM 57.4°F14.1°C 55.4°F13.0°C 93% Calm Calm 2.0 mph3.2 kmh 30.11 in1019.6 mb 0.00 in0.0 mm 0.00 in0.0 mm 0.00 in0.0 mm
01:24 AM 57.4°F14.1°C 55.4°F13.0°C 93% Calm Calm -- 30.12 in1020.0 mb 0.00 in0.0 mm 0.00 in0.0 mm 0.00 in0.0 mm
01:13 AM 57.0°F13.9°C 55.0°F12.8°C 93% Calm Calm -- 30.12 in1020.0 mb 0.00 in0.0 mm 0.00 in0.0 mm 0.00 in0.0 mm
01:03 AM 56.7°F13.7°C 54.7°F12.6°C 93% Calm Calm -- 30.12 in1020.0 mb 0.00 in0.0 mm 0.00 in0.0 mm 0.00 in0.0 mm
12:53 AM 56.5°F13.6°C 54.5°F12.5°C 93% Calm Calm -- 30.12 in1020.0 mb 0.00 in0.0 mm 0.00 in0.0 mm 0.00 in0.0 mm
12:43 AM 56.1°F13.4°C 54.5°F12.5°C 94% Calm Calm -- 30.12 in1020.0 mb 0.00 in0.0 mm 0.00 in0.0 mm 0.00 in0.0 mm
12:33 AM 55.8°F13.2°C 54.1°F12.3°C 94% Calm Calm -- 30.12 in1020.0 mb 0.00 in0.0 mm 0.00 in0.0 mm 0.00 in0.0 mm
12:23 AM 55.4°F13.0°C 53.8°F12.1°C 94% Calm Calm -- 30.12 in1020.0 mb 0.00 in0.0 mm 0.00 in0.0 mm 0.00 in0.0 mm
12:13 AM 55.0°F12.8°C 53.4°F11.9°C 94% Calm Calm -- 30.12 in1020.0 mb 0.00 in0.0 mm 0.00 in0.0 mm 0.00 in0.0 mm
12:03 AM 54.9°F12.7°C 53.2°F11.8°C 94% Calm Calm -- 30.12 in1020.0 mb 0.00 in0.0 mm 0.00 in0.0 mm 0.00 in0.0 mm